»·PEaware :: N583SC KHND-KDAG

N583SC :: KHND-KDAG

FLIGHT INFORMATION

Flight Status: Arrived
Operator: Privately registered:
United States
More flights under this callsign
Pilot: Scott G. (88)
Aircraft: CESSNA 172 SKYHAWK
(C172)
More flights by this aircraft type
Origin: KHND Henderson
United States
Destination: KDAG Barstow-Daggett
United States
More flights between these airports :: More routes between these airports
Route:
File this flight plan on PilotEdge
Remarks: Flight following
Altitude:
(Current/Filed)
6,500ft
Speed:
(Current/Filed)
115kts
Departed: 19-Aug-18 01:21 PM
Arrived: 19-Aug-18 02:23 PM
Distance/Time
Traveled:
105nm/1:02
Distance/Time
To Go:
Arrived

Flight Plot

Page will automatically refresh every two minutes.

Flight plan parsing failed; only flown route is shown


Map Options




Map Legend


Flown Route
Filed Route
Departure Airport
Arrival Airport
Navaid (VOR, NDB)
Fix

Horizontal Profiles

Position Reports

Time Latitude Longitude Heading Altitude Ground
Speed
19-Aug-18 12:42 35.970400 -115.138598 0 2496ft 0kts
19-Aug-18 12:43 35.970400 -115.138598 0 2496ft 0kts
19-Aug-18 12:44 35.970400 -115.138598 0 2496ft 0kts
19-Aug-18 12:45 35.970400 -115.138598 0 2496ft 0kts
19-Aug-18 12:46 35.970400 -115.138598 0 2496ft 0kts
19-Aug-18 12:47 35.970400 -115.138598 0 2496ft 0kts
19-Aug-18 12:48 35.970400 -115.138598 0 2496ft 0kts
19-Aug-18 12:49 35.970399 -115.138599 0 2496ft 0kts
19-Aug-18 12:50 35.970399 -115.138599 0 2496ft 0kts
19-Aug-18 12:51 35.970399 -115.138599 0 2496ft 0kts
19-Aug-18 12:52 35.970399 -115.138599 0 2496ft 0kts
19-Aug-18 12:53 35.970399 -115.138599 0 2496ft 0kts
19-Aug-18 12:54 35.970399 -115.138599 0 2496ft 0kts
19-Aug-18 12:55 35.970957 -115.139928 271 2496ft 0kts
19-Aug-18 12:56 35.970957 -115.139927 271 2496ft 0kts
19-Aug-18 12:57 35.970957 -115.139927 271 2496ft 0kts
19-Aug-18 12:58 35.970945 -115.139394 83 2496ft 10kts
19-Aug-18 12:59 35.970911 -115.137227 89 2496ft 0kts
19-Aug-18 13:00 35.970911 -115.137227 90 2496ft 0kts
19-Aug-18 13:01 35.970911 -115.137227 90 2496ft 0kts
19-Aug-18 13:02 35.970911 -115.137227 90 2496ft 0kts
19-Aug-18 13:03 35.970911 -115.137227 90 2496ft 0kts
19-Aug-18 13:04 35.970911 -115.137227 90 2496ft 0kts
19-Aug-18 13:05 35.970911 -115.137227 90 2496ft 0kts
19-Aug-18 13:06 35.970911 -115.137227 90 2496ft 0kts
19-Aug-18 13:07 35.970911 -115.137227 90 2496ft 0kts
19-Aug-18 13:08 35.970911 -115.137227 90 2496ft 0kts
19-Aug-18 13:09 35.970911 -115.137227 90 2496ft 0kts
19-Aug-18 13:10 35.970911 -115.137227 90 2496ft 0kts
19-Aug-18 13:11 35.970911 -115.137227 90 2496ft 0kts
19-Aug-18 13:12 35.970911 -115.137227 90 2496ft 0kts
19-Aug-18 13:13 35.970912 -115.137191 89 2496ft 2kts
19-Aug-18 13:14 35.973385 -115.136448 2 2496ft 19kts
19-Aug-18 13:15 35.979914 -115.136351 359 2496ft 23kts
19-Aug-18 13:16 35.980827 -115.136061 88 2496ft 0kts
19-Aug-18 13:17 35.980827 -115.136061 87 2496ft 0kts
19-Aug-18 13:18 35.980827 -115.136061 87 2496ft 0kts
19-Aug-18 13:19 35.980827 -115.136061 87 2496ft 0kts
19-Aug-18 13:20 35.980827 -115.136061 87 2496ft 0kts
19-Aug-18 13:21 35.979993 -115.135330 178 2496ft 22kts
19-Aug-18 13:22 35.962262 -115.134246 174 2893ft 74kts
19-Aug-18 13:23 35.941180 -115.134053 183 3486ft 75kts
19-Aug-18 13:24 35.920072 -115.136706 183 4003ft 79kts
19-Aug-18 13:25 35.897356 -115.139639 183 4523ft 85kts
19-Aug-18 13:26 35.873428 -115.142819 183 5044ft 87kts
19-Aug-18 13:27 35.858515 -115.144809 183 5307ft 92kts
19-Aug-18 13:28 35.836390 -115.150968 219 5661ft 101kts
19-Aug-18 13:29 35.818376 -115.172603 222 6015ft 104kts
19-Aug-18 13:30 35.798325 -115.197007 222 6402ft 105kts
19-Aug-18 13:31 35.775807 -115.224452 222 6515ft 119kts
19-Aug-18 13:32 35.752926 -115.252487 222 6515ft 113kts
19-Aug-18 13:33 35.730905 -115.279293 222 6516ft 115kts
19-Aug-18 13:34 35.707935 -115.307268 222 6515ft 114kts
19-Aug-18 13:35 35.685474 -115.334561 222 6516ft 117kts
19-Aug-18 13:36 35.662165 -115.362844 222 6515ft 117kts
19-Aug-18 13:37 35.639040 -115.390894 222 6515ft 117kts
19-Aug-18 13:38 35.615862 -115.419008 222 6515ft 117kts
19-Aug-18 13:39 35.592599 -115.447215 222 6515ft 117kts
19-Aug-18 13:40 35.569350 -115.475389 222 6515ft 117kts
19-Aug-18 13:41 35.546351 -115.503240 222 6544ft 115kts
19-Aug-18 13:42 35.523241 -115.531198 222 6536ft 116kts
19-Aug-18 13:43 35.503516 -115.562446 235 6538ft 118kts
19-Aug-18 13:44 35.480234 -115.590371 221 6536ft 117kts
19-Aug-18 13:45 35.456628 -115.617748 221 6536ft 117kts
19-Aug-18 13:46 35.433033 -115.645205 221 6536ft 117kts
19-Aug-18 13:47 35.409582 -115.672504 220 6535ft 116kts
19-Aug-18 13:48 35.386026 -115.699913 221 6535ft 116kts
19-Aug-18 13:49 35.366605 -115.730953 250 6534ft 118kts
19-Aug-18 13:50 35.356642 -115.769500 252 6532ft 118kts
19-Aug-18 13:51 35.347777 -115.808465 254 6531ft 118kts
19-Aug-18 13:52 35.333218 -115.843645 230 6529ft 117kts
19-Aug-18 13:53 35.313817 -115.875943 234 6528ft 117kts
19-Aug-18 13:54 35.295615 -115.909275 236 6527ft 117kts
19-Aug-18 13:55 35.278106 -115.943002 237 6507ft 118kts
19-Aug-18 13:56 35.260906 -115.976969 237 6520ft 117kts
19-Aug-18 13:57 35.243996 -116.011002 238 6520ft 117kts
19-Aug-18 13:58 35.231702 -116.036062 238 6520ft 117kts
19-Aug-18 13:59 35.223355 -116.053048 238 6520ft 117kts
19-Aug-18 14:00 35.206392 -116.087335 238 6520ft 117kts
19-Aug-18 14:01 35.189236 -116.121332 237 6520ft 117kts
19-Aug-18 14:02 35.172044 -116.155140 237 6520ft 117kts
19-Aug-18 14:03 35.154908 -116.189151 237 6520ft 117kts
19-Aug-18 14:04 35.137881 -116.223087 238 6520ft 117kts
19-Aug-18 14:05 35.120842 -116.257090 238 6520ft 117kts
19-Aug-18 14:06 35.103839 -116.291032 238 6520ft 117kts
19-Aug-18 14:07 35.086802 -116.325030 238 6520ft 117kts
19-Aug-18 14:08 35.069945 -116.358640 238 6520ft 117kts
19-Aug-18 14:09 35.052791 -116.392815 238 6520ft 118kts
19-Aug-18 14:10 35.035913 -116.426572 236 6504ft 114kts
19-Aug-18 14:11 35.019952 -116.458736 236 6504ft 109kts
19-Aug-18 14:12 35.003936 -116.490361 236 6448ft 112kts
19-Aug-18 14:13 34.987168 -116.523572 237 6091ft 118kts
19-Aug-18 14:14 34.970163 -116.558866 241 5587ft 123kts
19-Aug-18 14:15 34.953493 -116.595765 230 5076ft 124kts
19-Aug-18 14:16 34.927625 -116.624185 222 4563ft 126kts
19-Aug-18 14:17 34.903225 -116.650003 222 3911ft 125kts
19-Aug-18 14:18 34.877473 -116.676867 222 3334ft 119kts
19-Aug-18 14:19 34.857418 -116.700391 241 2929ft 83kts
19-Aug-18 14:20 34.852395 -116.713132 255 2745ft 78kts
19-Aug-18 14:21 34.851530 -116.735371 272 2688ft 68kts
19-Aug-18 14:22 34.851544 -116.758298 270 2324ft 68kts
19-Aug-18 14:23 34.851457 -116.778987 271 1936ft 49kts
19-Aug-18 14:24 34.852202 -116.783267 359 1929ft 0kts
19-Aug-18 14:25 34.852544 -116.784966 270 1929ft 15kts
19-Aug-18 14:26 34.853376 -116.789556 319 1929ft 16kts
19-Aug-18 14:27 34.856234 -116.790962 323 1929ft 8kts
19-Aug-18 14:28 34.856456 -116.791227 91 1929ft 0kts
19-Aug-18 14:29 34.856456 -116.791227 91 1929ft 0kts
19-Aug-18 14:30 34.856456 -116.791227 91 1929ft 0kts

Navigation Log

Ident Type
Flight plan parsing failed, navigation log unavailable